sensor_id;sensor_type;location;lat;lon;timestamp;P1;durP1;ratioP1;P2;durP2;ratioP2
11962;SDS011;62678;52.130;5.584;2023-02-15T00:01:15;80.00;;;43.85;;
11962;SDS011;62678;52.130;5.584;2023-02-15T00:03:42;87.00;;;43.75;;
11962;SDS011;62678;52.130;5.584;2023-02-15T00:06:09;86.95;;;45.00;;
11962;SDS011;62678;52.130;5.584;2023-02-15T00:08:36;76.57;;;42.33;;
11962;SDS011;62678;52.130;5.584;2023-02-15T00:11:04;76.80;;;42.53;;
11962;SDS011;62678;52.130;5.584;2023-02-15T00:13:34;77.65;;;43.45;;
11962;SDS011;62678;52.130;5.584;2023-02-15T00:16:04;80.82;;;43.85;;
11962;SDS011;62678;52.130;5.584;2023-02-15T00:18:32;88.07;;;44.50;;
11962;SDS011;62678;52.130;5.584;2023-02-15T00:21:02;83.70;;;43.78;;
11962;SDS011;62678;52.130;5.584;2023-02-15T00:23:30;82.20;;;45.22;;
11962;SDS011;62678;52.130;5.584;2023-02-15T00:26:04;84.53;;;44.83;;
11962;SDS011;62678;52.130;5.584;2023-02-15T00:28:33;83.22;;;45.03;;
11962;SDS011;62678;52.130;5.584;2023-02-15T00:31:04;90.80;;;46.20;;
11962;SDS011;62678;52.130;5.584;2023-02-15T00:33:31;94.05;;;48.67;;
11962;SDS011;62678;52.130;5.584;2023-02-15T00:35:58;83.35;;;43.95;;
11962;SDS011;62678;52.130;5.584;2023-02-15T00:38:26;92.50;;;50.45;;
11962;SDS011;62678;52.130;5.584;2023-02-15T00:40:55;81.68;;;44.45;;
11962;SDS011;62678;52.130;5.584;2023-02-15T00:43:22;79.90;;;42.53;;
11962;SDS011;62678;52.130;5.584;2023-02-15T00:45:51;74.85;;;43.03;;
11962;SDS011;62678;52.130;5.584;2023-02-15T00:48:18;84.05;;;45.17;;
11962;SDS011;62678;52.130;5.584;2023-02-15T00:50:46;83.50;;;44.65;;
11962;SDS011;62678;52.130;5.584;2023-02-15T00:53:14;81.18;;;43.13;;
11962;SDS011;62678;52.130;5.584;2023-02-15T00:55:41;78.95;;;43.25;;
11962;SDS011;62678;52.130;5.584;2023-02-15T00:58:09;76.05;;;41.58;;
11962;SDS011;62678;52.130;5.584;2023-02-15T01:00:36;83.65;;;42.17;;
11962;SDS011;62678;52.130;5.584;2023-02-15T01:03:05;83.55;;;41.95;;
11962;SDS011;62678;52.130;5.584;2023-02-15T01:05:32;74.90;;;41.22;;
11962;SDS011;62678;52.130;5.584;2023-02-15T01:08:00;83.30;;;41.92;;
11962;SDS011;62678;52.130;5.584;2023-02-15T01:10:27;81.13;;;41.55;;
11962;SDS011;62678;52.130;5.584;2023-02-15T01:12:55;77.88;;;40.97;;
11962;SDS011;62678;52.130;5.584;2023-02-15T01:15:22;72.18;;;38.30;;
11962;SDS011;62678;52.130;5.584;2023-02-15T01:17:49;75.43;;;39.60;;
11962;SDS011;62678;52.130;5.584;2023-02-15T01:20:19;81.40;;;41.45;;
11962;SDS011;62678;52.130;5.584;2023-02-15T01:22:47;73.88;;;39.47;;
11962;SDS011;62678;52.130;5.584;2023-02-15T01:25:15;80.07;;;41.22;;
11962;SDS011;62678;52.130;5.584;2023-02-15T01:27:42;77.18;;;40.05;;
11962;SDS011;62678;52.130;5.584;2023-02-15T01:30:09;81.40;;;41.10;;
11962;SDS011;62678;52.130;5.584;2023-02-15T01:32:37;76.90;;;40.42;;
11962;SDS011;62678;52.130;5.584;2023-02-15T01:35:04;73.13;;;38.65;;
11962;SDS011;62678;52.130;5.584;2023-02-15T01:37:33;81.57;;;41.55;;
11962;SDS011;62678;52.130;5.584;2023-02-15T01:40:01;76.22;;;39.53;;
11962;SDS011;62678;52.130;5.584;2023-02-15T01:42:28;76.65;;;39.45;;
11962;SDS011;62678;52.130;5.584;2023-02-15T01:44:56;76.13;;;39.30;;
11962;SDS011;62678;52.130;5.584;2023-02-15T01:47:25;78.47;;;39.60;;
11962;SDS011;62678;52.130;5.584;2023-02-15T01:50:00;74.85;;;38.95;;
11962;SDS011;62678;52.130;5.584;2023-02-15T01:52:34;76.65;;;39.25;;
11962;SDS011;62678;52.130;5.584;2023-02-15T01:55:03;80.70;;;41.58;;
11962;SDS011;62678;52.130;5.584;2023-02-15T01:57:32;81.43;;;41.28;;
11962;SDS011;62678;52.130;5.584;2023-02-15T01:59:59;75.05;;;39.40;;
11962;SDS011;62678;52.130;5.584;2023-02-15T02:02:29;79.05;;;39.47;;
11962;SDS011;62678;52.130;5.584;2023-02-15T02:04:57;73.75;;;38.67;;
11962;SDS011;62678;52.130;5.584;2023-02-15T02:07:28;77.43;;;41.50;;
11962;SDS011;62678;52.130;5.584;2023-02-15T02:09:59;77.03;;;39.92;;
11962;SDS011;62678;52.130;5.584;2023-02-15T02:12:28;67.38;;;36.45;;
11962;SDS011;62678;52.130;5.584;2023-02-15T02:14:55;71.93;;;37.83;;
11962;SDS011;62678;52.130;5.584;2023-02-15T02:17:25;76.05;;;39.45;;
11962;SDS011;62678;52.130;5.584;2023-02-15T02:29:01;70.85;;;38.33;;
11962;SDS011;62678;52.130;5.584;2023-02-15T02:32:02;71.32;;;38.28;;
11962;SDS011;62678;52.130;5.584;2023-02-15T02:34:57;75.00;;;38.97;;
11962;SDS011;62678;52.130;5.584;2023-02-15T02:37:28;80.45;;;39.85;;
11962;SDS011;62678;52.130;5.584;2023-02-15T02:40:03;79.80;;;39.15;;
11962;SDS011;62678;52.130;5.584;2023-02-15T02:42:35;76.50;;;39.33;;
11962;SDS011;62678;52.130;5.584;2023-02-15T02:45:05;71.93;;;37.90;;
11962;SDS011;62678;52.130;5.584;2023-02-15T02:47:36;73.75;;;38.10;;
11962;SDS011;62678;52.130;5.584;2023-02-15T02:50:08;78.10;;;38.58;;
11962;SDS011;62678;52.130;5.584;2023-02-15T02:52:40;72.68;;;38.53;;
11962;SDS011;62678;52.130;5.584;2023-02-15T02:55:10;78.68;;;39.20;;
11962;SDS011;62678;52.130;5.584;2023-02-15T02:57:41;72.88;;;38.08;;
11962;SDS011;62678;52.130;5.584;2023-02-15T03:00:12;71.88;;;36.95;;
11962;SDS011;62678;52.130;5.584;2023-02-15T03:02:41;71.22;;;36.83;;
11962;SDS011;62678;52.130;5.584;2023-02-15T03:05:13;70.60;;;36.75;;
11962;SDS011;62678;52.130;5.584;2023-02-15T03:07:44;72.82;;;37.55;;
11962;SDS011;62678;52.130;5.584;2023-02-15T03:10:16;71.88;;;37.08;;
11962;SDS011;62678;52.130;5.584;2023-02-15T03:12:46;69.03;;;35.90;;
11962;SDS011;62678;52.130;5.584;2023-02-15T03:15:14;74.72;;;37.70;;
11962;SDS011;62678;52.130;5.584;2023-02-15T03:17:47;75.30;;;37.33;;
11962;SDS011;62678;52.130;5.584;2023-02-15T03:20:21;78.00;;;40.33;;
11962;SDS011;62678;52.130;5.584;2023-02-15T03:22:53;78.10;;;38.33;;
11962;SDS011;62678;52.130;5.584;2023-02-15T03:25:23;77.80;;;38.17;;
11962;SDS011;62678;52.130;5.584;2023-02-15T03:27:53;74.88;;;37.80;;
11962;SDS011;62678;52.130;5.584;2023-02-15T03:30:24;77.03;;;37.83;;
11962;SDS011;62678;52.130;5.584;2023-02-15T03:32:54;70.30;;;37.20;;
11962;SDS011;62678;52.130;5.584;2023-02-15T03:35:26;78.57;;;39.35;;
11962;SDS011;62678;52.130;5.584;2023-02-15T03:38:02;75.18;;;37.50;;
11962;SDS011;62678;52.130;5.584;2023-02-15T03:40:34;78.50;;;38.63;;
11962;SDS011;62678;52.130;5.584;2023-02-15T03:43:21;79.47;;;38.08;;
11962;SDS011;62678;52.130;5.584;2023-02-15T03:45:57;76.45;;;37.40;;
11962;SDS011;62678;52.130;5.584;2023-02-15T03:48:32;75.72;;;38.13;;
11962;SDS011;62678;52.130;5.584;2023-02-15T03:51:05;76.15;;;37.90;;
11962;SDS011;62678;52.130;5.584;2023-02-15T03:53:52;78.03;;;36.97;;
11962;SDS011;62678;52.130;5.584;2023-02-15T03:56:20;77.20;;;37.53;;
11962;SDS011;62678;52.130;5.584;2023-02-15T03:58:47;66.57;;;36.03;;
11962;SDS011;62678;52.130;5.584;2023-02-15T04:01:32;74.47;;;38.00;;
11962;SDS011;62678;52.130;5.584;2023-02-15T04:04:19;76.32;;;37.88;;
11962;SDS011;62678;52.130;5.584;2023-02-15T04:06:49;77.35;;;38.20;;
11962;SDS011;62678;52.130;5.584;2023-02-15T04:09:16;77.57;;;37.53;;
11962;SDS011;62678;52.130;5.584;2023-02-15T04:12:00;74.25;;;38.25;;
11962;SDS011;62678;52.130;5.584;2023-02-15T04:14:27;71.75;;;37.55;;
11962;SDS011;62678;52.130;5.584;2023-02-15T04:17:11;75.43;;;37.65;;
11962;SDS011;62678;52.130;5.584;2023-02-15T04:19:38;75.72;;;37.63;;
11962;SDS011;62678;52.130;5.584;2023-02-15T04:22:24;71.60;;;35.33;;
11962;SDS011;62678;52.130;5.584;2023-02-15T04:25:08;72.10;;;37.42;;
11962;SDS011;62678;52.130;5.584;2023-02-15T04:27:35;74.68;;;37.58;;
11962;SDS011;62678;52.130;5.584;2023-02-15T04:30:03;79.10;;;37.47;;
11962;SDS011;62678;52.130;5.584;2023-02-15T04:32:30;79.50;;;39.03;;
11962;SDS011;62678;52.130;5.584;2023-02-15T04:34:57;81.30;;;38.92;;
11962;SDS011;62678;52.130;5.584;2023-02-15T04:37:25;89.82;;;41.17;;
11962;SDS011;62678;52.130;5.584;2023-02-15T04:39:53;82.28;;;40.15;;
11962;SDS011;62678;52.130;5.584;2023-02-15T04:42:20;76.63;;;38.38;;
11962;SDS011;62678;52.130;5.584;2023-02-15T04:44:47;76.43;;;37.55;;
11962;SDS011;62678;52.130;5.584;2023-02-15T04:47:13;69.60;;;36.55;;
11962;SDS011;62678;52.130;5.584;2023-02-15T04:49:40;74.90;;;38.10;;
11962;SDS011;62678;52.130;5.584;2023-02-15T04:52:07;77.30;;;38.58;;
11962;SDS011;62678;52.130;5.584;2023-02-15T04:54:36;77.63;;;37.72;;
11962;SDS011;62678;52.130;5.584;2023-02-15T04:57:03;76.93;;;37.70;;
11962;SDS011;62678;52.130;5.584;2023-02-15T04:59:30;82.55;;;39.33;;
11962;SDS011;62678;52.130;5.584;2023-02-15T05:01:57;75.10;;;37.30;;
11962;SDS011;62678;52.130;5.584;2023-02-15T05:04:24;77.30;;;38.47;;
11962;SDS011;62678;52.130;5.584;2023-02-15T05:06:51;77.35;;;38.15;;
11962;SDS011;62678;52.130;5.584;2023-02-15T05:09:18;83.88;;;39.28;;
11962;SDS011;62678;52.130;5.584;2023-02-15T05:11:46;75.15;;;39.70;;
11962;SDS011;62678;52.130;5.584;2023-02-15T05:14:13;78.45;;;39.50;;
11962;SDS011;62678;52.130;5.584;2023-02-15T05:16:40;78.28;;;40.13;;
11962;SDS011;62678;52.130;5.584;2023-02-15T05:19:07;80.05;;;38.80;;
11962;SDS011;62678;52.130;5.584;2023-02-15T05:21:34;72.72;;;38.67;;
11962;SDS011;62678;52.130;5.584;2023-02-15T05:24:00;81.95;;;40.72;;
11962;SDS011;62678;52.130;5.584;2023-02-15T05:26:49;82.90;;;41.00;;
11962;SDS011;62678;52.130;5.584;2023-02-15T05:29:33;79.18;;;40.42;;
11962;SDS011;62678;52.130;5.584;2023-02-15T05:32:00;84.85;;;41.03;;
11962;SDS011;62678;52.130;5.584;2023-02-15T05:34:27;91.82;;;45.72;;
11962;SDS011;62678;52.130;5.584;2023-02-15T05:36:54;85.25;;;43.30;;
11962;SDS011;62678;52.130;5.584;2023-02-15T05:39:21;89.25;;;44.08;;
11962;SDS011;62678;52.130;5.584;2023-02-15T05:41:49;81.53;;;41.63;;
11962;SDS011;62678;52.130;5.584;2023-02-15T05:44:16;89.72;;;43.28;;
11962;SDS011;62678;52.130;5.584;2023-02-15T05:46:43;79.25;;;43.10;;
11962;SDS011;62678;52.130;5.584;2023-02-15T05:49:10;85.15;;;42.50;;
11962;SDS011;62678;52.130;5.584;2023-02-15T05:51:36;79.30;;;41.20;;
11962;SDS011;62678;52.130;5.584;2023-02-15T05:54:03;80.00;;;41.67;;
11962;SDS011;62678;52.130;5.584;2023-02-15T05:56:30;84.00;;;42.15;;
11962;SDS011;62678;52.130;5.584;2023-02-15T05:58:58;84.90;;;42.35;;
11962;SDS011;62678;52.130;5.584;2023-02-15T06:01:25;83.20;;;41.47;;
11962;SDS011;62678;52.130;5.584;2023-02-15T06:03:52;76.75;;;39.78;;
11962;SDS011;62678;52.130;5.584;2023-02-15T06:06:20;78.07;;;40.45;;
11962;SDS011;62678;52.130;5.584;2023-02-15T06:08:47;82.47;;;42.00;;
11962;SDS011;62678;52.130;5.584;2023-02-15T06:11:14;80.72;;;41.47;;
11962;SDS011;62678;52.130;5.584;2023-02-15T06:13:41;89.07;;;41.67;;
11962;SDS011;62678;52.130;5.584;2023-02-15T06:16:09;80.15;;;40.80;;
11962;SDS011;62678;52.130;5.584;2023-02-15T06:18:36;91.80;;;43.67;;
11962;SDS011;62678;52.130;5.584;2023-02-15T06:21:03;90.10;;;43.17;;
11962;SDS011;62678;52.130;5.584;2023-02-15T06:23:30;87.60;;;43.30;;
11962;SDS011;62678;52.130;5.584;2023-02-15T06:25:56;90.60;;;44.88;;
11962;SDS011;62678;52.130;5.584;2023-02-15T06:28:23;95.93;;;46.30;;
11962;SDS011;62678;52.130;5.584;2023-02-15T06:30:51;84.43;;;43.08;;
11962;SDS011;62678;52.130;5.584;2023-02-15T06:33:19;87.57;;;43.55;;
11962;SDS011;62678;52.130;5.584;2023-02-15T06:35:46;103.32;;;47.63;;
11962;SDS011;62678;52.130;5.584;2023-02-15T06:38:13;97.30;;;46.38;;
11962;SDS011;62678;52.130;5.584;2023-02-15T06:40:40;83.72;;;41.65;;
11962;SDS011;62678;52.130;5.584;2023-02-15T06:43:07;91.80;;;44.38;;
11962;SDS011;62678;52.130;5.584;2023-02-15T06:45:33;100.78;;;46.45;;
11962;SDS011;62678;52.130;5.584;2023-02-15T06:48:00;97.13;;;44.30;;
11962;SDS011;62678;52.130;5.584;2023-02-15T06:50:29;87.72;;;44.33;;
11962;SDS011;62678;52.130;5.584;2023-02-15T06:52:56;100.20;;;45.90;;
11962;SDS011;62678;52.130;5.584;2023-02-15T06:55:23;86.80;;;43.35;;
11962;SDS011;62678;52.130;5.584;2023-02-15T06:57:50;85.03;;;41.45;;
11962;SDS011;62678;52.130;5.584;2023-02-15T07:00:17;82.43;;;41.63;;
11962;SDS011;62678;52.130;5.584;2023-02-15T07:02:44;82.13;;;41.80;;
11962;SDS011;62678;52.130;5.584;2023-02-15T07:05:11;94.05;;;44.35;;
11962;SDS011;62678;52.130;5.584;2023-02-15T07:07:39;101.97;;;46.15;;
11962;SDS011;62678;52.130;5.584;2023-02-15T07:10:06;115.97;;;52.72;;
11962;SDS011;62678;52.130;5.584;2023-02-15T07:12:34;124.30;;;54.58;;
11962;SDS011;62678;52.130;5.584;2023-02-15T07:15:09;116.47;;;50.65;;
11962;SDS011;62678;52.130;5.584;2023-02-15T07:17:38;117.75;;;53.90;;
11962;SDS011;62678;52.130;5.584;2023-02-15T07:20:06;130.90;;;56.80;;
11962;SDS011;62678;52.130;5.584;2023-02-15T07:22:34;131.50;;;57.00;;
11962;SDS011;62678;52.130;5.584;2023-02-15T07:25:03;121.00;;;55.85;;
11962;SDS011;62678;52.130;5.584;2023-02-15T07:27:31;125.32;;;56.78;;
11962;SDS011;62678;52.130;5.584;2023-02-15T07:29:58;133.23;;;59.10;;
11962;SDS011;62678;52.130;5.584;2023-02-15T07:32:26;118.97;;;54.85;;
11962;SDS011;62678;52.130;5.584;2023-02-15T07:34:54;119.32;;;55.10;;
11962;SDS011;62678;52.130;5.584;2023-02-15T07:37:21;116.63;;;54.15;;
11962;SDS011;62678;52.130;5.584;2023-02-15T07:39:48;126.97;;;55.58;;
11962;SDS011;62678;52.130;5.584;2023-02-15T07:42:16;112.72;;;53.05;;
11962;SDS011;62678;52.130;5.584;2023-02-15T07:44:44;108.53;;;51.10;;
11962;SDS011;62678;52.130;5.584;2023-02-15T07:47:11;113.50;;;51.95;;
11962;SDS011;62678;52.130;5.584;2023-02-15T07:49:38;106.13;;;50.90;;
11962;SDS011;62678;52.130;5.584;2023-02-15T07:52:05;97.13;;;47.38;;
11962;SDS011;62678;52.130;5.584;2023-02-15T07:54:32;98.38;;;48.90;;
11962;SDS011;62678;52.130;5.584;2023-02-15T07:57:00;97.15;;;48.00;;
11962;SDS011;62678;52.130;5.584;2023-02-15T07:59:28;96.72;;;47.20;;
11962;SDS011;62678;52.130;5.584;2023-02-15T08:01:55;95.30;;;46.38;;
11962;SDS011;62678;52.130;5.584;2023-02-15T08:04:23;86.78;;;46.35;;
11962;SDS011;62678;52.130;5.584;2023-02-15T08:06:52;92.43;;;47.17;;
11962;SDS011;62678;52.130;5.584;2023-02-15T08:09:20;91.05;;;46.40;;
11962;SDS011;62678;52.130;5.584;2023-02-15T08:11:48;87.10;;;44.38;;
11962;SDS011;62678;52.130;5.584;2023-02-15T08:14:16;91.03;;;46.72;;
11962;SDS011;62678;52.130;5.584;2023-02-15T08:16:46;92.93;;;46.75;;
11962;SDS011;62678;52.130;5.584;2023-02-15T08:19:15;90.45;;;45.92;;
11962;SDS011;62678;52.130;5.584;2023-02-15T08:21:44;88.13;;;45.15;;
11962;SDS011;62678;52.130;5.584;2023-02-15T08:24:13;88.03;;;44.83;;
11962;SDS011;62678;52.130;5.584;2023-02-15T08:26:41;88.07;;;44.22;;
11962;SDS011;62678;52.130;5.584;2023-02-15T08:29:11;82.13;;;44.22;;
11962;SDS011;62678;52.130;5.584;2023-02-15T08:31:39;78.55;;;43.08;;
11962;SDS011;62678;52.130;5.584;2023-02-15T08:34:08;77.70;;;42.10;;
11962;SDS011;62678;52.130;5.584;2023-02-15T08:36:36;73.35;;;40.67;;
11962;SDS011;62678;52.130;5.584;2023-02-15T08:39:04;78.93;;;42.47;;
11962;SDS011;62678;52.130;5.584;2023-02-15T08:41:33;76.28;;;41.92;;
11962;SDS011;62678;52.130;5.584;2023-02-15T08:44:02;67.47;;;39.30;;
11962;SDS011;62678;52.130;5.584;2023-02-15T08:46:31;74.43;;;39.22;;
11962;SDS011;62678;52.130;5.584;2023-02-15T08:49:00;72.55;;;39.65;;
11962;SDS011;62678;52.130;5.584;2023-02-15T08:51:29;70.10;;;40.42;;
11962;SDS011;62678;52.130;5.584;2023-02-15T08:53:58;67.57;;;40.88;;
11962;SDS011;62678;52.130;5.584;2023-02-15T08:56:26;72.38;;;40.75;;
11962;SDS011;62678;52.130;5.584;2023-02-15T08:58:55;70.53;;;39.85;;
11962;SDS011;62678;52.130;5.584;2023-02-15T09:01:23;71.60;;;41.20;;
11962;SDS011;62678;52.130;5.584;2023-02-15T09:03:51;70.22;;;39.20;;
11962;SDS011;62678;52.130;5.584;2023-02-15T09:06:21;67.72;;;38.67;;
11962;SDS011;62678;52.130;5.584;2023-02-15T09:08:50;68.50;;;39.80;;
11962;SDS011;62678;52.130;5.584;2023-02-15T09:11:17;66.15;;;38.60;;
11962;SDS011;62678;52.130;5.584;2023-02-15T09:13:49;67.18;;;39.53;;
11962;SDS011;62678;52.130;5.584;2023-02-15T09:16:18;64.45;;;38.17;;
11962;SDS011;62678;52.130;5.584;2023-02-15T09:18:45;64.22;;;38.00;;
11962;SDS011;62678;52.130;5.584;2023-02-15T09:21:14;61.83;;;37.00;;
11962;SDS011;62678;52.130;5.584;2023-02-15T09:23:43;62.80;;;35.35;;
11962;SDS011;62678;52.130;5.584;2023-02-15T09:26:13;60.42;;;34.80;;
11962;SDS011;62678;52.130;5.584;2023-02-15T09:28:41;60.85;;;35.17;;
11962;SDS011;62678;52.130;5.584;2023-02-15T09:31:09;56.10;;;34.67;;
11962;SDS011;62678;52.130;5.584;2023-02-15T09:33:38;56.92;;;35.00;;
11962;SDS011;62678;52.130;5.584;2023-02-15T09:36:12;59.22;;;34.45;;
11962;SDS011;62678;52.130;5.584;2023-02-15T09:38:41;59.08;;;34.17;;
11962;SDS011;62678;52.130;5.584;2023-02-15T09:41:31;55.90;;;33.72;;
11962;SDS011;62678;52.130;5.584;2023-02-15T09:44:21;57.13;;;34.13;;
11962;SDS011;62678;52.130;5.584;2023-02-15T09:47:02;58.13;;;33.80;;
11962;SDS011;62678;52.130;5.584;2023-02-15T09:49:45;54.45;;;33.75;;
11962;SDS011;62678;52.130;5.584;2023-02-15T09:52:20;54.28;;;33.33;;
11962;SDS011;62678;52.130;5.584;2023-02-15T09:55:00;57.45;;;33.95;;
11962;SDS011;62678;52.130;5.584;2023-02-15T09:57:46;54.13;;;32.88;;
11962;SDS011;62678;52.130;5.584;2023-02-15T10:00:22;56.88;;;33.65;;
11962;SDS011;62678;52.130;5.584;2023-02-15T10:02:59;54.83;;;33.92;;
11962;SDS011;62678;52.130;5.584;2023-02-15T10:05:38;54.17;;;32.83;;
11962;SDS011;62678;52.130;5.584;2023-02-15T10:08:20;58.80;;;33.25;;
11962;SDS011;62678;52.130;5.584;2023-02-15T10:11:01;54.53;;;32.95;;
11962;SDS011;62678;52.130;5.584;2023-02-15T10:13:50;56.15;;;34.13;;
11962;SDS011;62678;52.130;5.584;2023-02-15T10:16:26;58.50;;;33.70;;
11962;SDS011;62678;52.130;5.584;2023-02-15T10:19:02;53.53;;;34.25;;
11962;SDS011;62678;52.130;5.584;2023-02-15T10:21:39;56.47;;;34.45;;
11962;SDS011;62678;52.130;5.584;2023-02-15T10:24:23;77.68;;;45.95;;
11962;SDS011;62678;52.130;5.584;2023-02-15T10:27:01;58.03;;;34.67;;
11962;SDS011;62678;52.130;5.584;2023-02-15T10:29:37;62.83;;;35.83;;
11962;SDS011;62678;52.130;5.584;2023-02-15T10:32:09;128.52;;;63.75;;
11962;SDS011;62678;52.130;5.584;2023-02-15T10:34:43;135.35;;;64.30;;
11962;SDS011;62678;52.130;5.584;2023-02-15T10:37:20;88.85;;;48.53;;
11962;SDS011;62678;52.130;5.584;2023-02-15T10:40:10;69.22;;;40.15;;
11962;SDS011;62678;52.130;5.584;2023-02-15T10:42:47;63.67;;;37.03;;
11962;SDS011;62678;52.130;5.584;2023-02-15T10:45:36;58.22;;;35.38;;
11962;SDS011;62678;52.130;5.584;2023-02-15T10:48:17;56.67;;;35.90;;
11962;SDS011;62678;52.130;5.584;2023-02-15T10:50:56;84.75;;;50.25;;
11962;SDS011;62678;52.130;5.584;2023-02-15T10:53:37;73.35;;;42.03;;
11962;SDS011;62678;52.130;5.584;2023-02-15T10:56:15;65.65;;;39.22;;
11962;SDS011;62678;52.130;5.584;2023-02-15T10:58:52;59.88;;;35.80;;
11962;SDS011;62678;52.130;5.584;2023-02-15T11:01:32;58.55;;;36.35;;
11962;SDS011;62678;52.130;5.584;2023-02-15T11:04:09;54.42;;;34.30;;
11962;SDS011;62678;52.130;5.584;2023-02-15T11:06:57;52.58;;;33.85;;
11962;SDS011;62678;52.130;5.584;2023-02-15T11:09:30;56.75;;;34.90;;
11962;SDS011;62678;52.130;5.584;2023-02-15T11:12:03;57.95;;;34.95;;
11962;SDS011;62678;52.130;5.584;2023-02-15T11:14:38;58.72;;;35.65;;
11962;SDS011;62678;52.130;5.584;2023-02-15T11:17:11;54.63;;;35.45;;
11962;SDS011;62678;52.130;5.584;2023-02-15T11:19:41;65.25;;;37.10;;
11962;SDS011;62678;52.130;5.584;2023-02-15T11:22:20;58.30;;;34.80;;
11962;SDS011;62678;52.130;5.584;2023-02-15T11:24:48;57.28;;;34.60;;
11962;SDS011;62678;52.130;5.584;2023-02-15T11:27:17;56.42;;;32.95;;
11962;SDS011;62678;52.130;5.584;2023-02-15T11:29:50;57.40;;;35.35;;
11962;SDS011;62678;52.130;5.584;2023-02-15T11:32:27;55.85;;;33.08;;
11962;SDS011;62678;52.130;5.584;2023-02-15T11:34:58;49.75;;;32.55;;
11962;SDS011;62678;52.130;5.584;2023-02-15T11:37:30;50.40;;;33.05;;
11962;SDS011;62678;52.130;5.584;2023-02-15T11:40:02;53.78;;;31.13;;
11962;SDS011;62678;52.130;5.584;2023-02-15T11:42:30;46.30;;;28.73;;
11962;SDS011;62678;52.130;5.584;2023-02-15T11:45:02;46.97;;;30.92;;
11962;SDS011;62678;52.130;5.584;2023-02-15T11:47:42;49.50;;;32.13;;
11962;SDS011;62678;52.130;5.584;2023-02-15T11:50:10;46.47;;;30.63;;
11962;SDS011;62678;52.130;5.584;2023-02-15T11:52:40;48.95;;;30.17;;
11962;SDS011;62678;52.130;5.584;2023-02-15T11:55:09;50.03;;;29.08;;
11962;SDS011;62678;52.130;5.584;2023-02-15T11:57:40;47.85;;;29.13;;
11962;SDS011;62678;52.130;5.584;2023-02-15T12:00:10;49.22;;;31.27;;
11962;SDS011;62678;52.130;5.584;2023-02-15T12:02:45;50.55;;;31.30;;
11962;SDS011;62678;52.130;5.584;2023-02-15T12:05:17;49.47;;;31.25;;
11962;SDS011;62678;52.130;5.584;2023-02-15T12:07:48;52.13;;;30.95;;
11962;SDS011;62678;52.130;5.584;2023-02-15T12:10:20;48.67;;;31.73;;
11962;SDS011;62678;52.130;5.584;2023-02-15T12:13:07;50.22;;;31.20;;
11962;SDS011;62678;52.130;5.584;2023-02-15T12:15:35;47.30;;;30.63;;
11962;SDS011;62678;52.130;5.584;2023-02-15T12:18:05;48.13;;;30.38;;
11962;SDS011;62678;52.130;5.584;2023-02-15T12:20:47;48.58;;;30.15;;
11962;SDS011;62678;52.130;5.584;2023-02-15T12:23:15;47.75;;;31.27;;
11962;SDS011;62678;52.130;5.584;2023-02-15T12:25:49;48.60;;;31.27;;
11962;SDS011;62678;52.130;5.584;2023-02-15T12:28:23;48.50;;;30.80;;
11962;SDS011;62678;52.130;5.584;2023-02-15T12:30:53;46.45;;;31.10;;
11962;SDS011;62678;52.130;5.584;2023-02-15T12:33:25;53.28;;;32.20;;
11962;SDS011;62678;52.130;5.584;2023-02-15T12:35:56;49.47;;;31.60;;
11962;SDS011;62678;52.130;5.584;2023-02-15T12:38:26;50.47;;;31.08;;
11962;SDS011;62678;52.130;5.584;2023-02-15T12:40:58;48.92;;;31.13;;
11962;SDS011;62678;52.130;5.584;2023-02-15T12:43:27;48.65;;;31.15;;
11962;SDS011;62678;52.130;5.584;2023-02-15T12:46:19;47.80;;;31.45;;
11962;SDS011;62678;52.130;5.584;2023-02-15T12:49:01;46.75;;;30.73;;
11962;SDS011;62678;52.130;5.584;2023-02-15T12:51:48;48.13;;;31.35;;
11962;SDS011;62678;52.130;5.584;2023-02-15T12:54:27;48.38;;;31.55;;
11962;SDS011;62678;52.130;5.584;2023-02-15T12:56:57;47.42;;;30.17;;
11962;SDS011;62678;52.130;5.584;2023-02-15T12:59:24;49.58;;;31.25;;
11962;SDS011;62678;52.130;5.584;2023-02-15T13:01:52;49.58;;;31.92;;
11962;SDS011;62678;52.130;5.584;2023-02-15T13:04:23;47.05;;;30.48;;
11962;SDS011;62678;52.130;5.584;2023-02-15T13:06:53;49.95;;;29.55;;
11962;SDS011;62678;52.130;5.584;2023-02-15T13:09:24;48.88;;;30.85;;
11962;SDS011;62678;52.130;5.584;2023-02-15T13:12:08;46.15;;;30.63;;
11962;SDS011;62678;52.130;5.584;2023-02-15T13:14:38;50.13;;;30.08;;
11962;SDS011;62678;52.130;5.584;2023-02-15T13:17:10;50.50;;;31.30;;
11962;SDS011;62678;52.130;5.584;2023-02-15T13:19:43;47.42;;;30.33;;
11962;SDS011;62678;52.130;5.584;2023-02-15T13:22:14;49.08;;;29.75;;
11962;SDS011;62678;52.130;5.584;2023-02-15T13:24:44;44.75;;;29.17;;
11962;SDS011;62678;52.130;5.584;2023-02-15T13:27:15;46.88;;;30.27;;
11962;SDS011;62678;52.130;5.584;2023-02-15T13:29:45;49.35;;;30.23;;
11962;SDS011;62678;52.130;5.584;2023-02-15T13:32:21;49.15;;;32.08;;
11962;SDS011;62678;52.130;5.584;2023-02-15T13:34:54;49.22;;;31.73;;
11962;SDS011;62678;52.130;5.584;2023-02-15T13:37:29;52.47;;;31.17;;
11962;SDS011;62678;52.130;5.584;2023-02-15T13:40:13;49.85;;;32.10;;
11962;SDS011;62678;52.130;5.584;2023-02-15T13:42:44;50.08;;;32.15;;
11962;SDS011;62678;52.130;5.584;2023-02-15T13:45:21;49.38;;;30.63;;
11962;SDS011;62678;52.130;5.584;2023-02-15T13:48:00;47.70;;;31.27;;
11962;SDS011;62678;52.130;5.584;2023-02-15T13:50:46;50.55;;;31.17;;
11962;SDS011;62678;52.130;5.584;2023-02-15T13:53:35;50.97;;;32.20;;
11962;SDS011;62678;52.130;5.584;2023-02-15T13:56:15;48.03;;;32.05;;
11962;SDS011;62678;52.130;5.584;2023-02-15T14:01:53;55.42;;;33.42;;
11962;SDS011;62678;52.130;5.584;2023-02-15T14:04:37;52.33;;;32.33;;
11962;SDS011;62678;52.130;5.584;2023-02-15T14:07:35;50.83;;;31.67;;
11962;SDS011;62678;52.130;5.584;2023-02-15T14:13:15;54.65;;;33.92;;
11962;SDS011;62678;52.130;5.584;2023-02-15T14:16:12;53.38;;;31.80;;
11962;SDS011;62678;52.130;5.584;2023-02-15T14:18:46;56.63;;;33.80;;
11962;SDS011;62678;52.130;5.584;2023-02-15T14:21:21;52.17;;;32.00;;
11962;SDS011;62678;52.130;5.584;2023-02-15T14:23:59;50.63;;;31.48;;
11962;SDS011;62678;52.130;5.584;2023-02-15T14:26:41;50.65;;;31.90;;
11962;SDS011;62678;52.130;5.584;2023-02-15T14:29:18;49.95;;;30.85;;
11962;SDS011;62678;52.130;5.584;2023-02-15T14:31:54;50.33;;;31.42;;
11962;SDS011;62678;52.130;5.584;2023-02-15T14:34:24;49.75;;;30.60;;
11962;SDS011;62678;52.130;5.584;2023-02-15T14:36:56;50.05;;;31.15;;
11962;SDS011;62678;52.130;5.584;2023-02-15T14:39:28;46.88;;;30.83;;
11962;SDS011;62678;52.130;5.584;2023-02-15T14:42:21;46.28;;;30.98;;
11962;SDS011;62678;52.130;5.584;2023-02-15T14:44:56;50.63;;;32.15;;
11962;SDS011;62678;52.130;5.584;2023-02-15T14:47:27;46.35;;;30.38;;
11962;SDS011;62678;52.130;5.584;2023-02-15T14:49:58;49.13;;;30.80;;
11962;SDS011;62678;52.130;5.584;2023-02-15T14:52:24;49.22;;;30.75;;
11962;SDS011;62678;52.130;5.584;2023-02-15T14:54:57;48.38;;;31.27;;
11962;SDS011;62678;52.130;5.584;2023-02-15T14:57:29;54.45;;;30.73;;
11962;SDS011;62678;52.130;5.584;2023-02-15T14:59:58;50.53;;;32.10;;
11962;SDS011;62678;52.130;5.584;2023-02-15T15:02:39;52.42;;;33.03;;